Flourtown, Pennsylvania
Current Conditions -  °F | °C
As of 10:55 PM on Wednesday 22 Oct 2014 (Local Time) from KLOM Reporting Station
Overcast Overcast  
Wind Chill: 52°   Ceiling: 2000
Heat Index: 52°   Visibility: 7mi
Dew Point: 50°   Wind: 5mph
Humidity: 94%   Direction: 310°NW
Pressure: 29.81"   Gusts: NA
Location:  40.1°N, 75.21°W
Report Text: KLOM 230255Z AUTO 31004KT 7SM SCT011 BKN020 OVC043 11/10 A2981 RMK AO1 P0002
Loading
Personal Weather Stations






























Interactive Weather Map
Tropical Storm Tracking
New forecast layout! Learn more

10-Day Weather Forecast

Advertisements
Track Severe Weather on mobile